createdAt,value
2019-03-04T00:00:32.555Z,45.17
2019-03-04T00:03:01.872Z,45.11
2019-03-04T00:05:31.056Z,45.08
2019-03-04T00:08:00.299Z,45.00
2019-03-04T00:10:29.497Z,45.03
2019-03-04T00:12:59.031Z,44.97
2019-03-04T00:15:28.220Z,45.02
2019-03-04T00:17:57.460Z,44.79
2019-03-04T00:20:26.665Z,44.81
2019-03-04T00:22:55.914Z,44.61
2019-03-04T00:25:25.099Z,44.70
2019-03-04T00:27:54.335Z,44.52
2019-03-04T00:30:23.533Z,44.70
2019-03-04T00:32:52.777Z,44.54
2019-03-04T00:35:22.295Z,44.66
2019-03-04T00:37:51.563Z,44.27
2019-03-04T00:40:20.746Z,44.38
2019-03-04T00:42:49.936Z,44.50
2019-03-04T00:45:19.198Z,44.50
2019-03-04T00:47:48.663Z,44.49
2019-03-04T00:50:18.189Z,44.54
2019-03-04T00:52:47.362Z,43.88
2019-03-04T00:55:18.042Z,43.88
2019-03-04T00:57:47.264Z,44.11
2019-03-04T01:00:21.638Z,44.05
2019-03-04T01:02:50.914Z,44.05
2019-03-04T01:05:20.107Z,44.04
2019-03-04T01:07:49.365Z,44.11
2019-03-04T01:10:19.431Z,43.92
2019-03-04T01:12:48.676Z,44.01
2019-03-04T01:15:19.661Z,43.92
2019-03-04T01:17:48.896Z,43.90
2019-03-04T01:20:18.501Z,43.73
2019-03-04T01:22:47.842Z,43.83
2019-03-04T01:25:18.307Z,43.83
2019-03-04T01:27:47.930Z,43.64
2019-03-04T01:30:19.595Z,43.59
2019-03-04T01:32:49.048Z,43.55
2019-03-04T01:35:18.391Z,43.48
2019-03-04T01:37:47.623Z,43.58
2019-03-04T01:40:21.716Z,43.72
2019-03-04T01:42:51.027Z,43.49
2019-03-04T01:45:20.565Z,43.21
2019-03-04T01:47:49.753Z,43.57
2019-03-04T01:50:19.330Z,43.34
2019-03-04T01:52:48.645Z,43.41
2019-03-04T01:55:18.487Z,43.28
2019-03-04T01:57:47.679Z,43.40
2019-03-04T02:00:20.417Z,43.37
2019-03-04T02:02:49.668Z,43.68
2019-03-04T02:05:20.197Z,43.65
2019-03-04T02:07:49.366Z,43.82
2019-03-04T02:10:19.308Z,43.70
2019-03-04T02:12:49.023Z,43.36
2019-03-04T02:15:18.898Z,43.23
2019-03-04T02:17:48.497Z,43.22
2019-03-04T02:20:18.499Z,43.11
2019-03-04T02:22:47.807Z,43.23
2019-03-04T02:25:18.087Z,43.27
2019-03-04T02:27:53.151Z,43.00
2019-03-04T02:30:27.372Z,43.07
2019-03-04T02:32:56.941Z,42.93
2019-03-04T02:35:26.126Z,43.08
2019-03-04T02:37:55.392Z,43.15
2019-03-04T02:40:24.568Z,42.98
2019-03-04T02:42:53.821Z,43.25
2019-03-04T02:45:23.020Z,43.33
2019-03-04T02:47:52.568Z,43.41
2019-03-04T02:50:21.752Z,43.63
2019-03-04T02:52:50.927Z,43.69
2019-03-04T02:55:20.439Z,43.98
2019-03-04T02:57:49.651Z,44.07
2019-03-04T03:00:19.000Z,44.26
2019-03-04T03:22:13.483Z,44.31
2019-03-04T03:24:42.746Z,44.10
2019-03-04T03:27:11.935Z,44.21
2019-03-04T03:29:41.173Z,43.93
2019-03-04T03:32:10.362Z,44.03
2019-03-04T03:34:39.604Z,43.61
2019-03-04T03:37:08.789Z,43.58
2019-03-04T03:39:38.047Z,43.68
2019-03-04T03:42:07.230Z,43.78
2019-03-04T03:44:36.478Z,43.50
2019-03-04T03:47:05.664Z,43.48
2019-03-04T03:49:35.799Z,43.32
2019-03-04T03:52:05.084Z,43.50
2019-03-04T03:54:34.323Z,43.08
2019-03-04T03:57:03.513Z,43.04
2019-03-04T03:59:33.271Z,42.85
2019-03-04T04:02:02.461Z,42.41
2019-03-04T04:04:31.664Z,42.38
2019-03-04T04:07:00.945Z,42.27
2019-03-04T04:09:30.155Z,42.10
2019-03-04T04:11:59.425Z,42.06
2019-03-04T04:14:29.425Z,42.29
2019-03-04T04:16:58.821Z,41.59
2019-03-04T04:19:28.022Z,41.70
2019-03-04T04:21:57.329Z,41.65
2019-03-04T04:24:26.509Z,41.41
2019-03-04T04:26:56.261Z,41.67
2019-03-04T04:29:25.450Z,41.89
2019-03-04T04:31:54.636Z,42.00
2019-03-04T04:34:24.227Z,42.24
2019-03-04T04:36:53.727Z,42.09
2019-03-04T04:39:22.964Z,41.93
2019-03-04T04:41:52.424Z,41.83
2019-03-04T04:44:21.950Z,41.67
2019-03-04T04:46:55.505Z,41.47
2019-03-04T04:49:26.509Z,41.44
2019-03-04T04:51:55.971Z,41.02
2019-03-04T04:54:25.224Z,40.77
2019-03-04T04:56:54.427Z,41.01
2019-03-04T04:59:23.671Z,41.14
2019-03-04T05:01:53.189Z,41.28
2019-03-04T05:04:22.420Z,40.82
2019-03-04T05:06:51.909Z,40.91
2019-03-04T05:09:21.131Z,40.89
2019-03-04T05:11:50.308Z,40.92
2019-03-04T05:14:19.563Z,40.75
2019-03-04T05:16:48.755Z,40.92
2019-03-04T05:19:17.989Z,40.72
2019-03-04T05:21:47.167Z,40.21
2019-03-04T05:24:16.435Z,39.79
2019-03-04T05:26:45.641Z,39.93
2019-03-04T05:29:14.830Z,39.89
2019-03-04T05:31:44.064Z,39.87
2019-03-04T05:34:13.247Z,39.89
2019-03-04T05:36:42.566Z,39.89
2019-03-04T05:39:11.763Z,39.61
2019-03-04T05:41:41.003Z,39.69
2019-03-04T05:44:10.194Z,39.72
2019-03-04T05:46:39.716Z,39.64
2019-03-04T05:49:08.892Z,40.04
2019-03-04T05:51:38.412Z,40.64
2019-03-04T05:54:07.580Z,40.51
2019-03-04T05:56:36.818Z,40.28
2019-03-04T05:59:06.009Z,40.18
2019-03-04T06:01:36.931Z,39.84
2019-03-04T06:04:08.463Z,39.83
2019-03-04T06:07:08.577Z,39.80
2019-03-04T06:09:37.764Z,39.49
2019-03-04T06:12:06.984Z,39.11
2019-03-04T06:14:36.355Z,39.12
2019-03-04T06:17:05.696Z,39.22
2019-03-04T06:19:35.119Z,38.73
2019-03-04T06:22:04.418Z,38.53
2019-03-04T06:24:33.886Z,38.52
2019-03-04T06:27:03.142Z,38.46
2019-03-04T06:29:32.336Z,38.28
2019-03-04T06:32:01.528Z,38.02
2019-03-04T06:34:31.335Z,38.32
2019-03-04T06:37:00.541Z,38.12
2019-03-04T06:39:29.776Z,37.88
2019-03-04T06:41:58.967Z,38.00
2019-03-04T06:44:28.204Z,37.79
2019-03-04T06:46:57.383Z,37.51
2019-03-04T06:49:26.901Z,37.52
2019-03-04T06:51:57.081Z,37.75
2019-03-04T06:55:15.962Z,37.58
2019-03-04T06:57:48.677Z,37.49
2019-03-04T07:00:47.537Z,37.24
2019-03-04T07:03:28.610Z,37.22
2019-03-04T07:05:58.150Z,36.74
2019-03-04T07:09:12.084Z,36.98
2019-03-04T07:11:42.611Z,36.42
2019-03-04T07:14:12.078Z,36.42
2019-03-04T07:16:41.597Z,36.44
2019-03-04T07:19:16.495Z,36.35
2019-03-04T07:21:45.875Z,36.16
2019-03-04T07:24:15.054Z,35.88
2019-03-04T07:26:44.567Z,36.02
2019-03-04T07:29:15.056Z,35.93
2019-03-04T07:31:44.393Z,35.92
2019-03-04T07:34:14.205Z,35.77
2019-03-04T07:36:43.445Z,35.49
2019-03-04T07:39:14.908Z,35.20
2019-03-04T07:41:45.633Z,34.74
2019-03-04T07:44:14.816Z,34.70
2019-03-04T07:46:44.060Z,34.67
2019-03-04T07:49:13.522Z,34.48
2019-03-04T07:51:43.252Z,34.34
2019-03-04T07:54:14.557Z,34.46
2019-03-04T07:56:43.749Z,34.48
2019-03-04T07:59:13.015Z,34.14
2019-03-04T08:01:42.212Z,34.30
2019-03-04T08:04:11.500Z,33.97
2019-03-04T08:06:40.972Z,33.90
2019-03-04T08:10:01.425Z,33.75
2019-03-04T08:13:18.287Z,33.53
2019-03-04T08:15:52.859Z,33.24
2019-03-04T08:18:23.796Z,33.35
2019-03-04T08:20:53.001Z,33.11
2019-03-04T08:23:22.686Z,32.70
2019-03-04T08:25:52.240Z,32.28
2019-03-04T08:28:21.699Z,31.62
2019-03-04T08:30:50.939Z,31.26
2019-03-04T08:33:20.333Z,30.93
2019-03-04T08:35:49.543Z,30.80
2019-03-04T08:38:18.800Z,30.42
2019-03-04T08:40:47.999Z,29.87
2019-03-04T08:43:17.199Z,29.84
2019-03-04T08:45:46.479Z,29.79
2019-03-04T08:48:15.732Z,29.24
2019-03-04T08:50:45.010Z,28.78
2019-03-04T08:53:14.220Z,28.37
2019-03-04T08:55:45.280Z,28.46
2019-03-04T08:58:16.941Z,28.27
2019-03-04T09:00:46.548Z,28.06
2019-03-04T09:03:16.153Z,28.27
2019-03-04T09:05:45.451Z,28.33
2019-03-04T09:08:14.687Z,27.52
2019-03-04T09:10:43.942Z,27.37
2019-03-04T09:13:13.153Z,26.59
2019-03-04T09:15:42.485Z,26.45
2019-03-04T09:18:11.670Z,26.40
2019-03-04T09:20:41.186Z,26.28
2019-03-04T09:23:10.748Z,25.98
2019-03-04T09:25:45.858Z,25.73
2019-03-04T09:28:15.124Z,25.49
2019-03-04T09:30:44.320Z,25.77
2019-03-04T09:33:13.570Z,25.21
2019-03-04T09:35:43.075Z,25.08
2019-03-04T09:38:12.338Z,24.56
2019-03-04T09:40:41.558Z,24.86
2019-03-04T09:43:10.810Z,24.94
2019-03-04T09:45:39.997Z,24.83
2019-03-04T09:48:12.065Z,25.35
2019-03-04T09:50:41.681Z,25.89
2019-03-04T09:53:10.894Z,26.44
2019-03-04T09:55:40.168Z,27.08
2019-03-04T09:58:09.356Z,27.43
2019-03-04T10:00:44.857Z,27.43
2019-03-04T10:04:04.103Z,27.23
2019-03-04T10:07:13.258Z,27.49
2019-03-04T10:10:39.265Z,27.83
2019-03-04T10:13:30.908Z,27.99
2019-03-04T10:16:24.461Z,28.43
2019-03-04T10:19:42.571Z,28.76
2019-03-04T10:22:53.512Z,28.70
2019-03-04T10:25:59.423Z,29.11
2019-03-04T10:28:54.664Z,30.16
2019-03-04T10:32:10.801Z,31.00
2019-03-04T10:35:11.308Z,32.22
2019-03-04T10:38:22.365Z,32.87
2019-03-04T10:41:12.761Z,32.94
2019-03-04T10:44:18.594Z,33.03
2019-03-04T10:46:55.500Z,33.52
2019-03-04T10:49:25.664Z,33.59
2019-03-04T10:51:54.953Z,33.77
2019-03-04T10:54:24.471Z,34.24
2019-03-04T10:56:53.719Z,34.26
2019-03-04T10:59:22.945Z,34.71
2019-03-04T11:01:52.191Z,35.00
2019-03-04T11:04:21.755Z,36.00
2019-03-04T11:06:50.982Z,36.51
2019-03-04T11:09:20.227Z,37.45
2019-03-04T11:11:49.699Z,38.43
2019-03-04T11:14:19.006Z,39.32
2019-03-04T11:16:48.187Z,39.93
2019-03-04T11:19:17.438Z,40.17
2019-03-04T11:21:46.619Z,40.55
2019-03-04T11:24:16.258Z,40.71
2019-03-04T11:26:45.537Z,40.92
2019-03-04T11:29:14.807Z,41.23
2019-03-04T11:31:43.986Z,41.19
2019-03-04T11:34:13.198Z,41.23
2019-03-04T11:36:42.589Z,41.70
2019-03-04T11:40:11.195Z,42.22
2019-03-04T11:42:40.378Z,42.63
2019-03-04T11:45:12.640Z,43.13
2019-03-04T11:47:41.913Z,43.40
2019-03-04T11:50:13.167Z,44.34
2019-03-04T11:52:42.708Z,44.91
2019-03-04T11:55:12.036Z,44.72
2019-03-04T11:57:41.315Z,45.54
2019-03-04T12:00:14.488Z,46.36
2019-03-04T12:02:43.681Z,46.67
2019-03-04T12:05:13.462Z,47.10
2019-03-04T12:07:42.687Z,47.46
2019-03-04T12:10:13.089Z,47.46
2019-03-04T12:12:42.506Z,47.13
2019-03-04T12:15:14.269Z,45.97
2019-03-04T12:17:43.448Z,45.81
2019-03-04T12:20:12.690Z,45.35
2019-03-04T12:22:42.201Z,45.47
2019-03-04T12:25:13.197Z,45.53
2019-03-04T12:27:42.809Z,45.39
2019-03-04T12:30:18.450Z,45.62
2019-03-04T12:32:47.669Z,45.74
2019-03-04T12:35:16.988Z,45.56
2019-03-04T12:37:46.259Z,45.93
2019-03-04T12:40:16.046Z,46.59
2019-03-04T12:42:45.291Z,46.89
2019-03-04T12:45:15.277Z,46.65
2019-03-04T12:47:44.507Z,47.03
2019-03-04T12:50:16.493Z,47.35
2019-03-04T12:52:45.724Z,47.64
2019-03-04T12:55:14.902Z,47.47
2019-03-04T12:57:44.135Z,47.68
2019-03-04T13:00:16.427Z,47.85
2019-03-04T13:02:45.684Z,48.59
2019-03-04T13:05:15.319Z,49.02
2019-03-04T13:07:44.605Z,49.31
2019-03-04T13:10:14.085Z,49.42
2019-03-04T13:12:43.678Z,49.89
2019-03-04T13:15:15.888Z,49.85
2019-03-04T13:17:45.100Z,49.92
2019-03-04T13:20:14.999Z,50.33
2019-03-04T13:22:44.333Z,51.01
2019-03-04T13:25:14.245Z,51.20
2019-03-04T13:27:43.529Z,51.22
2019-03-04T13:30:15.932Z,51.89
2019-03-04T13:32:45.111Z,52.10
2019-03-04T13:35:24.058Z,51.78
2019-03-04T13:37:47.328Z,51.28
2019-03-04T13:40:16.568Z,51.13
2019-03-04T13:42:45.750Z,50.63
2019-03-04T13:45:15.415Z,50.90
2019-03-04T13:47:44.626Z,51.50
2019-03-04T13:50:16.454Z,51.57
2019-03-04T13:52:45.915Z,51.99
2019-03-04T13:55:16.756Z,51.96
2019-03-04T13:57:46.551Z,51.82
2019-03-04T14:00:19.323Z,51.67
2019-03-04T14:02:48.625Z,51.55
2019-03-04T14:05:19.094Z,51.34
2019-03-04T14:07:48.696Z,50.98
2019-03-04T14:10:18.906Z,51.04
2019-03-04T14:12:48.130Z,50.84
2019-03-04T14:15:20.132Z,50.96
2019-03-04T14:17:49.370Z,51.07
2019-03-04T14:20:20.191Z,50.94
2019-03-04T14:22:57.318Z,51.19
2019-03-04T14:25:20.319Z,51.21
2019-03-04T14:27:49.674Z,51.25
2019-03-04T14:30:18.920Z,51.36
2019-03-04T14:32:48.150Z,51.79
2019-03-04T14:35:17.325Z,51.90
2019-03-04T14:37:46.574Z,52.33
2019-03-04T14:40:16.248Z,52.36
2019-03-04T14:42:45.449Z,52.63
2019-03-04T14:45:18.713Z,52.62
2019-03-04T14:47:48.726Z,52.58
2019-03-04T14:50:18.011Z,52.90
2019-03-04T14:52:47.491Z,53.14
2019-03-04T14:55:18.032Z,53.35
2019-03-04T14:57:47.321Z,53.32
2019-03-04T15:00:22.851Z,53.27
2019-03-04T15:02:52.027Z,53.39
2019-03-04T15:05:21.320Z,53.41
2019-03-04T15:07:50.617Z,53.24
2019-03-04T15:10:21.141Z,52.92
2019-03-04T15:12:50.628Z,52.98
2019-03-04T15:15:20.000Z,52.93
2019-03-04T15:17:49.282Z,52.95
2019-03-04T15:20:20.016Z,52.46
2019-03-04T15:22:49.185Z,52.30
2019-03-04T15:25:21.126Z,52.43
2019-03-04T15:27:50.338Z,52.08
2019-03-04T15:30:19.591Z,51.61
2019-03-04T15:32:48.792Z,51.36
2019-03-04T15:35:18.029Z,51.30
2019-03-04T15:37:47.204Z,51.12
2019-03-04T15:40:16.437Z,50.87
2019-03-04T15:42:45.622Z,50.68
2019-03-04T15:45:15.303Z,50.57
2019-03-04T15:47:44.727Z,50.40
2019-03-04T15:50:14.447Z,49.73
2019-03-04T15:52:45.250Z,49.58
2019-03-04T15:55:15.102Z,49.24
2019-03-04T15:57:44.396Z,48.82
2019-03-04T16:00:13.977Z,48.77
2019-03-04T16:02:43.159Z,48.27
2019-03-04T16:05:12.615Z,48.20
2019-03-04T16:07:41.788Z,47.82
2019-03-04T16:10:12.099Z,47.69
2019-03-04T16:12:42.255Z,46.91
2019-03-04T16:15:13.879Z,45.98
2019-03-04T16:17:43.078Z,45.99
2019-03-04T16:20:16.341Z,45.45
2019-03-04T16:22:44.501Z,44.92
2019-03-04T16:25:13.992Z,44.86
2019-03-04T16:27:43.235Z,44.32
2019-03-04T16:30:15.462Z,43.70
2019-03-04T16:32:44.694Z,43.13
2019-03-04T16:35:14.271Z,42.91
2019-03-04T16:37:43.643Z,42.88
2019-03-04T16:40:14.902Z,42.66
2019-03-04T16:42:44.227Z,42.29
2019-03-04T16:45:16.783Z,42.21
2019-03-04T16:47:46.107Z,41.86
2019-03-04T16:50:15.810Z,41.70
2019-03-04T16:52:45.657Z,41.34
2019-03-04T16:55:16.104Z,41.14
2019-03-04T16:57:45.351Z,41.01
2019-03-04T17:00:16.430Z,40.63
2019-03-04T17:02:46.049Z,40.60
2019-03-04T17:05:16.422Z,40.50
2019-03-04T17:07:45.704Z,40.38
2019-03-04T17:10:15.407Z,40.53
2019-03-04T17:12:44.774Z,40.67
2019-03-04T17:15:15.902Z,40.71
2019-03-04T17:17:45.367Z,40.74
2019-03-04T17:20:15.036Z,40.90
2019-03-04T17:22:44.350Z,40.87
2019-03-04T17:25:15.077Z,41.02
2019-03-04T17:27:44.632Z,40.92
2019-03-04T17:30:15.823Z,40.63
2019-03-04T17:32:45.001Z,40.24
2019-03-04T17:35:16.157Z,40.22
2019-03-04T17:37:45.624Z,40.15
2019-03-04T17:40:16.042Z,40.23
2019-03-04T17:42:45.222Z,40.26
2019-03-04T17:45:15.834Z,40.48
2019-03-04T17:47:45.009Z,40.44
2019-03-04T17:50:17.066Z,40.52
2019-03-04T17:52:46.263Z,40.33
2019-03-04T17:55:16.046Z,40.50
2019-03-04T17:57:45.503Z,39.97
2019-03-04T18:00:15.012Z,40.02
2019-03-04T18:02:44.215Z,39.97
2019-03-04T18:05:14.118Z,39.62
2019-03-04T18:07:43.637Z,39.36
2019-03-04T18:10:14.084Z,38.50
2019-03-04T18:12:43.323Z,38.23
2019-03-04T18:15:15.460Z,37.81
2019-03-04T18:17:44.969Z,37.26
2019-03-04T18:20:14.194Z,37.48
2019-03-04T18:22:43.912Z,38.08
2019-03-04T18:25:39.423Z,38.55
2019-03-04T18:28:13.137Z,39.12
2019-03-04T18:31:20.066Z,40.02
2019-03-04T18:34:26.125Z,40.66
2019-03-04T18:37:08.328Z,41.34
2019-03-04T18:40:19.918Z,41.93
2019-03-04T18:43:44.479Z,42.45
2019-03-04T18:46:57.288Z,43.09
2019-03-04T18:49:26.786Z,43.72
2019-03-04T18:51:55.983Z,44.23
2019-03-04T18:54:25.217Z,44.79
2019-03-04T18:56:54.680Z,45.04
2019-03-04T18:59:23.930Z,45.47
2019-03-04T19:01:53.115Z,45.85
2019-03-04T19:04:22.401Z,46.17
2019-03-04T19:06:51.635Z,46.47
2019-03-04T19:09:20.859Z,47.01
2019-03-04T19:11:50.035Z,47.52
2019-03-04T19:14:19.536Z,48.23
2019-03-04T19:16:48.708Z,50.06
2019-03-04T19:19:17.953Z,54.74
2019-03-04T19:21:47.126Z,58.93
2019-03-04T19:24:16.297Z,62.09
2019-03-04T19:26:45.525Z,64.53
2019-03-04T19:29:14.974Z,65.71
2019-03-04T19:31:44.214Z,66.28
2019-03-04T19:34:13.390Z,67.00
2019-03-04T19:36:42.633Z,67.47
2019-03-04T19:39:11.801Z,68.34
2019-03-04T19:41:41.039Z,68.67
2019-03-04T19:44:10.424Z,68.81
2019-03-04T19:46:39.646Z,68.91
2019-03-04T19:49:08.821Z,69.15
2019-03-04T19:51:38.055Z,68.89
2019-03-04T19:54:07.600Z,69.23
2019-03-04T19:56:37.132Z,69.00
2019-03-04T19:59:06.308Z,68.45
2019-03-04T20:01:35.729Z,68.32
2019-03-04T20:04:04.930Z,68.14
2019-03-04T20:06:34.453Z,67.73
2019-03-04T20:09:05.281Z,67.27
2019-03-04T20:11:34.793Z,67.42
2019-03-04T20:14:04.426Z,67.13
2019-03-04T20:16:33.879Z,66.62
2019-03-04T20:19:03.405Z,66.37
2019-03-04T20:21:32.583Z,66.87
2019-03-04T20:24:01.812Z,66.80
2019-03-04T20:26:31.011Z,66.70
2019-03-04T20:29:00.251Z,66.80
2019-03-04T20:31:29.503Z,67.18
2019-03-04T20:33:58.732Z,67.54
2019-03-04T20:36:27.924Z,67.62
2019-03-04T20:38:57.170Z,68.26
2019-03-04T20:41:26.805Z,68.35
2019-03-04T20:43:56.069Z,68.37
2019-03-04T20:46:25.625Z,68.47
2019-03-04T20:48:55.857Z,67.79
2019-03-04T20:51:25.321Z,68.35
2019-03-04T20:53:54.559Z,69.67
2019-03-04T20:56:23.738Z,69.70
2019-03-04T20:58:53.697Z,69.98
2019-03-04T21:01:23.050Z,70.41
2019-03-04T21:03:52.345Z,70.44
2019-03-04T21:06:21.650Z,70.34
2019-03-04T21:08:50.826Z,70.40
2019-03-04T21:11:20.062Z,70.48
2019-03-04T21:13:49.531Z,70.98
2019-03-04T21:16:18.778Z,71.05
2019-03-04T21:18:47.957Z,71.61
2019-03-04T21:21:17.195Z,71.04
2019-03-04T21:23:48.424Z,70.69
2019-03-04T21:26:25.863Z,70.43
2019-03-04T21:29:14.769Z,69.71
2019-03-04T21:32:01.563Z,69.91
2019-03-04T21:35:10.296Z,69.64
2019-03-04T21:37:42.890Z,68.94
2019-03-04T21:40:34.924Z,67.89
2019-03-04T21:43:11.770Z,67.79
2019-03-04T21:46:31.227Z,66.86
2019-03-04T21:49:04.435Z,66.65
2019-03-04T21:52:08.566Z,66.72
2019-03-04T21:54:37.816Z,66.81
2019-03-04T21:57:28.039Z,67.24
2019-03-04T21:59:57.553Z,67.75
2019-03-04T22:02:31.557Z,69.04
2019-03-04T22:05:03.540Z,69.09
2019-03-04T22:07:32.740Z,68.43
2019-03-04T22:10:01.946Z,68.66
2019-03-04T22:12:31.120Z,68.86
2019-03-04T22:15:00.478Z,68.71
2019-03-04T22:17:29.625Z,68.08
2019-03-04T22:19:59.000Z,67.96
2019-03-04T22:22:28.531Z,68.25
2019-03-04T22:24:57.770Z,67.29
2019-03-04T22:27:26.956Z,67.22
2019-03-04T22:29:56.471Z,66.91
2019-03-04T22:32:25.658Z,66.97
2019-03-04T22:34:55.079Z,66.67
2019-03-04T22:37:24.548Z,66.40
2019-03-04T22:39:53.980Z,65.94
2019-03-04T22:42:23.214Z,65.82
2019-03-04T22:44:52.956Z,65.54
2019-03-04T22:47:22.193Z,64.87
2019-03-04T22:49:51.357Z,65.00
2019-03-04T22:52:21.016Z,64.46
2019-03-04T22:54:50.193Z,64.30
2019-03-04T22:57:19.721Z,64.12
2019-03-04T22:59:49.181Z,63.63
2019-03-04T23:02:18.719Z,62.81
2019-03-04T23:04:56.924Z,62.99
2019-03-04T23:07:34.520Z,62.93
2019-03-04T23:10:32.164Z,62.62
2019-03-04T23:13:28.549Z,61.98
2019-03-04T23:15:59.220Z,62.38
2019-03-04T23:18:28.444Z,62.89
2019-03-04T23:20:57.620Z,62.07
2019-03-04T23:23:26.905Z,61.72
2019-03-04T23:25:56.452Z,61.26
2019-03-04T23:28:25.781Z,61.22
2019-03-04T23:30:55.245Z,60.91
2019-03-04T23:33:25.949Z,60.66
2019-03-04T23:35:55.110Z,60.33
2019-03-04T23:38:24.283Z,60.04
2019-03-04T23:40:53.512Z,59.53
2019-03-04T23:43:22.687Z,59.94
2019-03-04T23:45:51.931Z,59.32
2019-03-04T23:48:21.119Z,59.10
2019-03-04T23:50:50.354Z,59.14
2019-03-04T23:53:19.529Z,58.91
2019-03-04T23:55:48.758Z,58.92
2019-03-04T23:58:18.237Z,58.53
